Time;durP1;ratioP1;P1;durP2;ratioP2;P2;SDS_P1;SDS_P2;PMS_P1;PMS_P2;Temp;Humidity;BMP_temperature;BMP_pressure;BME280_temperature;BME280_humidity;BME280_pressure;Samples;Min_cycle;Max_cycle;Signal;HPM_P1;HPM_P2
2023/04/20 00:03:54;;;;;;;3.63;3.33;;;;;;;;;;10193781;28;20224;-79
2023/04/20 00:08:55;;;;;;;5.30;3.17;;;;;;;;;;10131906;28;20359;-80
2023/04/20 00:13:57;;;;;;;3.83;3.53;;;;;;;;;;10166630;28;20798;-78
2023/04/20 00:18:59;;;;;;;3.53;3.33;;;;;;;;;;10169842;28;20221;-78
2023/04/20 00:24:00;;;;;;;9.65;3.85;;;;;;;;;;10160443;28;21490;-76
2023/04/20 00:29:01;;;;;;;3.75;3.30;;;;;;;;;;10189076;28;20727;-75
2023/04/20 00:34:02;;;;;;;4.78;4.40;;;;;;;;;;10243822;28;20225;-78
2023/04/20 00:39:04;;;;;;;4.25;3.72;;;;;;;;;;10201822;28;20222;-76
2023/04/20 00:44:06;;;;;;;4.75;4.25;;;;;;;;;;10141097;28;20261;-76
2023/04/20 00:49:08;;;;;;;4.07;3.78;;;;;;;;;;10146486;28;20217;-78
2023/04/20 00:54:10;;;;;;;4.70;4.03;;;;;;;;;;10180697;28;20217;-79
2023/04/20 00:59:11;;;;;;;4.75;4.25;;;;;;;;;;10160616;28;20312;-78
2023/04/20 01:04:12;;;;;;;9.10;4.15;;;;;;;;;;10158176;28;20218;-77
2023/04/20 01:09:14;;;;;;;4.43;3.67;;;;;;;;;;10189921;28;20218;-77
2023/04/20 01:14:15;;;;;;;8.35;4.50;;;;;;;;;;10152397;28;20225;-80
2023/04/20 01:19:16;;;;;;;6.30;3.97;;;;;;;;;;10182270;28;20249;-80
2023/04/20 01:24:17;;;;;;;5.22;4.63;;;;;;;;;;10182770;28;20225;-80
2023/04/20 01:29:18;;;;;;;4.00;3.60;;;;;;;;;;10184634;28;20256;-78
2023/04/20 01:34:19;;;;;;;9.85;4.55;;;;;;;;;;10189253;28;20360;-79
2023/04/20 01:39:20;;;;;;;7.38;4.22;;;;;;;;;;10229192;28;20863;-77
2023/04/20 01:44:21;;;;;;;6.95;3.70;;;;;;;;;;10179402;28;20271;-79
2023/04/20 01:49:22;;;;;;;4.10;3.70;;;;;;;;;;10174131;28;20221;-79
2023/04/20 01:54:23;;;;;;;5.72;3.95;;;;;;;;;;10191375;28;20753;-78
2023/04/20 01:59:24;;;;;;;4.97;4.47;;;;;;;;;;10191385;28;20228;-78
2023/04/20 02:04:25;;;;;;;5.20;4.18;;;;;;;;;;10196781;28;20221;-79
2023/04/20 02:09:26;;;;;;;5.55;4.00;;;;;;;;;;10191456;28;20987;-78
2023/04/20 02:14:28;;;;;;;7.63;3.88;;;;;;;;;;10185069;28;20300;-78
2023/04/20 02:19:29;;;;;;;4.43;3.90;;;;;;;;;;10215151;28;20260;-77
2023/04/20 02:24:30;;;;;;;5.43;4.88;;;;;;;;;;10205690;28;21628;-77
2023/04/20 02:29:31;;;;;;;4.32;3.63;;;;;;;;;;10210704;28;20225;-77
2023/04/20 02:34:32;;;;;;;4.13;3.83;;;;;;;;;;10229956;28;20232;-76
2023/04/20 02:39:33;;;;;;;6.18;4.97;;;;;;;;;;10200747;28;20258;-79
2023/04/20 02:44:34;;;;;;;4.82;3.83;;;;;;;;;;10209145;28;20789;-79
2023/04/20 02:49:37;;;;;;;7.75;4.97;;;;;;;;;;10221511;28;20225;-77
2023/04/20 02:54:39;;;;;;;4.00;3.70;;;;;;;;;;10229767;28;20227;-77
2023/04/20 02:59:40;;;;;;;2.88;2.53;;;;;;;;;;10242517;28;20240;-76
2023/04/20 03:04:55;;;;;;;4.35;2.75;;;;;;;;;;10252547;28;20912;-78
2023/04/20 03:09:57;;;;;;;2.60;2.40;;;;;;;;;;10200484;28;20260;-79
2023/04/20 03:15:11;;;;;;;2.53;2.42;;;;;;;;;;10229275;28;20753;-79
2023/04/20 03:20:21;;;;;;;3.25;2.53;;;;;;;;;;10239068;28;22662;-78
2023/04/20 03:25:22;;;;;;;2.80;2.00;;;;;;;;;;10203557;28;20229;-79
2023/04/20 03:30:31;;;;;;;4.28;2.30;;;;;;;;;;10167218;28;20296;-79
2023/04/20 03:35:41;;;;;;;3.17;2.88;;;;;;;;;;10226572;28;20785;-77
2023/04/20 03:40:42;;;;;;;3.05;2.85;;;;;;;;;;10262318;28;20424;-78
2023/04/20 03:45:44;;;;;;;2.97;2.60;;;;;;;;;;10220165;28;21052;-76
2023/04/20 03:50:45;;;;;;;8.05;3.40;;;;;;;;;;10230978;28;20272;-78
2023/04/20 03:55:46;;;;;;;3.78;3.30;;;;;;;;;;10262181;28;20210;-78
2023/04/20 04:00:50;;;;;;;3.28;3.08;;;;;;;;;;10264445;28;20719;-76
2023/04/20 04:05:52;;;;;;;3.63;3.30;;;;;;;;;;10208188;28;20225;-79
2023/04/20 04:10:53;;;;;;;5.50;3.78;;;;;;;;;;10188743;28;20312;-79
2023/04/20 04:15:54;;;;;;;3.95;3.53;;;;;;;;;;10217877;28;20224;-79
2023/04/20 04:20:56;;;;;;;7.35;4.40;;;;;;;;;;10241521;28;20779;-81
2023/04/20 04:25:57;;;;;;;7.53;4.40;;;;;;;;;;10228737;28;20221;-80
2023/04/20 04:31:00;;;;;;;4.82;4.47;;;;;;;;;;10240945;28;20846;-79
2023/04/20 04:36:02;;;;;;;5.05;4.38;;;;;;;;;;10254551;28;20252;-78
2023/04/20 04:41:04;;;;;;;6.95;4.75;;;;;;;;;;10263793;28;20322;-78
2023/04/20 04:46:09;;;;;;;4.53;4.13;;;;;;;;;;10259600;28;20214;-79
2023/04/20 04:51:11;;;;;;;6.10;5.43;;;;;;;;;;10224924;28;20306;-79
2023/04/20 04:56:12;;;;;;;8.38;5.68;;;;;;;;;;10258304;28;20218;-77
2023/04/20 05:01:13;;;;;;;5.88;5.25;;;;;;;;;;10219143;28;20698;-78
2023/04/20 05:06:14;;;;;;;6.13;5.25;;;;;;;;;;10262141;28;20658;-79
2023/04/20 05:11:15;;;;;;;6.53;4.95;;;;;;;;;;10255672;28;20696;-80
2023/04/20 05:16:16;;;;;;;7.57;5.85;;;;;;;;;;10262768;28;20225;-80
2023/04/20 05:21:17;;;;;;;6.68;5.50;;;;;;;;;;10234436;28;20225;-80
2023/04/20 05:26:18;;;;;;;8.57;4.60;;;;;;;;;;10262681;28;20311;-79
2023/04/20 05:31:19;;;;;;;9.48;5.43;;;;;;;;;;10264145;28;20209;-79
2023/04/20 05:36:20;;;;;;;5.88;5.38;;;;;;;;;;10231285;28;20213;-79
2023/04/20 05:41:25;;;;;;;6.45;5.32;;;;;;;;;;10251595;28;21081;-79
2023/04/20 05:46:28;;;;;;;5.80;5.00;;;;;;;;;;10243737;28;20223;-79
2023/04/20 05:51:32;;;;;;;6.45;4.32;;;;;;;;;;10262494;28;20217;-78
2023/04/20 05:56:33;;;;;;;6.28;4.78;;;;;;;;;;10252498;28;20320;-77
2023/04/20 06:01:34;;;;;;;5.75;5.20;;;;;;;;;;10236476;28;20225;-80
2023/04/20 06:06:35;;;;;;;7.25;4.38;;;;;;;;;;10255130;28;20218;-80
2023/04/20 06:11:36;;;;;;;6.13;5.53;;;;;;;;;;10255269;28;20222;-80
2023/04/20 06:16:37;;;;;;;6.47;4.88;;;;;;;;;;10265544;28;20276;-78
2023/04/20 06:21:38;;;;;;;6.00;4.95;;;;;;;;;;10269037;28;20300;-79
2023/04/20 06:26:40;;;;;;;5.22;4.70;;;;;;;;;;10263880;28;20224;-79
2023/04/20 06:31:41;;;;;;;5.28;4.78;;;;;;;;;;10255464;28;20217;-80
2023/04/20 06:36:42;;;;;;;5.20;4.65;;;;;;;;;;10265569;28;20269;-79
2023/04/20 06:41:43;;;;;;;4.88;4.47;;;;;;;;;;10274384;28;20244;-79
2023/04/20 06:46:46;;;;;;;4.60;4.20;;;;;;;;;;10278031;28;20239;-78
2023/04/20 06:51:47;;;;;;;5.90;4.50;;;;;;;;;;10247809;28;20647;-78
2023/04/20 06:56:48;;;;;;;4.57;4.32;;;;;;;;;;10280221;28;20225;-80
2023/04/20 07:01:49;;;;;;;7.05;5.05;;;;;;;;;;10293709;28;20210;-77
2023/04/20 07:06:50;;;;;;;6.53;4.30;;;;;;;;;;10303164;28;20873;-81
2023/04/20 07:11:55;;;;;;;4.93;4.32;;;;;;;;;;10280647;28;20233;-79
2023/04/20 07:16:56;;;;;;;4.45;3.83;;;;;;;;;;10260291;28;20225;-80
2023/04/20 07:21:57;;;;;;;5.38;3.53;;;;;;;;;;10280057;28;20242;-79
2023/04/20 07:26:58;;;;;;;4.15;3.55;;;;;;;;;;10261982;28;20800;-80
2023/04/20 07:31:59;;;;;;;3.95;3.55;;;;;;;;;;10244353;28;20217;-80
2023/04/20 07:37:00;;;;;;;4.07;3.88;;;;;;;;;;10262112;28;20225;-80
2023/04/20 07:42:03;;;;;;;4.30;3.90;;;;;;;;;;10244666;28;20869;-78
2023/04/20 07:47:04;;;;;;;3.80;3.58;;;;;;;;;;10258992;28;20217;-79
2023/04/20 07:52:05;;;;;;;3.47;3.28;;;;;;;;;;10270877;28;20243;-80
2023/04/20 07:57:08;;;;;;;3.58;3.33;;;;;;;;;;10254112;28;20221;-79
2023/04/20 08:02:09;;;;;;;3.72;3.47;;;;;;;;;;10271929;28;20667;-79
2023/04/20 08:07:10;;;;;;;3.20;3.00;;;;;;;;;;10270375;28;20225;-79
2023/04/20 08:12:12;;;;;;;3.55;3.35;;;;;;;;;;10251750;28;20340;-80
2023/04/20 08:17:13;;;;;;;3.95;3.80;;;;;;;;;;10261028;28;20228;-79
2023/04/20 08:22:14;;;;;;;3.50;3.25;;;;;;;;;;10270906;28;20236;-77
2023/04/20 08:27:15;;;;;;;3.88;3.65;;;;;;;;;;10275795;28;20846;-79
2023/04/20 08:32:17;;;;;;;3.78;3.47;;;;;;;;;;10274621;28;20316;-78
2023/04/20 08:37:19;;;;;;;3.53;3.33;;;;;;;;;;10271682;28;20315;-79
2023/04/20 08:42:20;;;;;;;3.10;2.90;;;;;;;;;;10254121;28;20644;-79
2023/04/20 08:47:21;;;;;;;3.30;3.10;;;;;;;;;;10257330;28;20285;-80
2023/04/20 08:52:22;;;;;;;4.03;3.72;;;;;;;;;;10250508;28;20224;-78
2023/04/20 08:57:23;;;;;;;3.60;3.30;;;;;;;;;;10270742;28;20217;-80
2023/04/20 09:02:24;;;;;;;3.72;3.50;;;;;;;;;;10232090;28;20221;-79
2023/04/20 09:07:25;;;;;;;3.85;3.55;;;;;;;;;;10261596;28;20348;-79
2023/04/20 09:12:27;;;;;;;3.55;3.35;;;;;;;;;;10255496;28;20810;-79
2023/04/20 09:17:32;;;;;;;4.20;3.92;;;;;;;;;;10255084;28;20236;-80
2023/04/20 09:22:35;;;;;;;3.58;2.90;;;;;;;;;;10258026;28;20226;-81
2023/04/20 09:27:36;;;;;;;3.63;3.42;;;;;;;;;;10279763;28;20312;-81
2023/04/20 09:32:37;;;;;;;2.55;2.47;;;;;;;;;;10265191;28;20227;-82
2023/04/20 09:37:46;;;;;;;3.28;3.00;;;;;;;;;;10257617;28;20221;-81
2023/04/20 09:42:50;;;;;;;3.22;3.13;;;;;;;;;;10271847;28;20225;-81
2023/04/20 09:47:52;;;;;;;4.20;3.70;;;;;;;;;;10275571;28;21193;-80
2023/04/20 09:52:53;;;;;;;3.92;3.72;;;;;;;;;;10247600;28;20317;-81
2023/04/20 09:57:54;;;;;;;3.65;3.35;;;;;;;;;;10267806;28;20237;-80
2023/04/20 10:02:56;;;;;;;3.88;3.38;;;;;;;;;;10257518;28;20225;-81
2023/04/20 10:08:00;;;;;;;3.65;3.45;;;;;;;;;;10257505;28;20216;-81
2023/04/20 10:13:01;;;;;;;3.75;3.50;;;;;;;;;;10276522;28;20228;-79
2023/04/20 10:18:02;;;;;;;4.00;3.53;;;;;;;;;;10260978;28;20247;-80
2023/04/20 10:23:09;;;;;;;3.22;3.03;;;;;;;;;;10268030;28;20225;-81
2023/04/20 10:28:10;;;;;;;3.60;3.40;;;;;;;;;;10265216;28;20247;-80
2023/04/20 10:33:12;;;;;;;3.50;3.40;;;;;;;;;;10260848;28;20257;-82
2023/04/20 10:38:13;;;;;;;3.40;3.10;;;;;;;;;;10258941;28;20272;-81
2023/04/20 10:43:20;;;;;;;5.60;3.67;;;;;;;;;;10262384;28;20642;-81
2023/04/20 10:48:21;;;;;;;3.75;3.45;;;;;;;;;;10270110;28;20712;-80
2023/04/20 10:53:23;;;;;;;3.28;3.17;;;;;;;;;;10249923;28;20221;-80
2023/04/20 10:58:24;;;;;;;4.20;3.88;;;;;;;;;;10270015;28;20606;-81
2023/04/20 11:03:27;;;;;;;3.63;3.42;;;;;;;;;;10253108;28;20719;-79
2023/04/20 11:08:42;;;;;;;2.17;2.08;;;;;;;;;;10271781;28;20320;-77
2023/04/20 11:13:43;;;;;;;3.53;3.33;;;;;;;;;;10255708;28;20269;-79
2023/04/20 11:18:54;;;;;;;3.75;3.53;;;;;;;;;;10271739;28;20308;-78
2023/04/20 11:23:55;;;;;;;3.38;3.17;;;;;;;;;;10278038;28;20229;-80
2023/04/20 11:28:57;;;;;;;2.58;2.45;;;;;;;;;;10259618;28;20241;-80
2023/04/20 11:33:58;;;;;;;2.75;2.65;;;;;;;;;;10240863;28;20759;-80
2023/04/20 11:39:08;;;;;;;4.45;3.05;;;;;;;;;;10270417;28;20230;-80
2023/04/20 11:44:10;;;;;;;2.63;2.53;;;;;;;;;;10259653;28;20217;-80
2023/04/20 11:49:10;;;;;;;2.15;2.05;;;;;;;;;;10261292;28;20722;-80
2023/04/20 11:54:12;;;;;;;2.08;1.70;;;;;;;;;;10240123;28;21320;-81
2023/04/20 11:59:15;;;;;;;2.50;2.17;;;;;;;;;;10245760;28;20221;-79
2023/04/20 12:04:16;;;;;;;3.28;3.03;;;;;;;;;;10246802;28;20228;-78
2023/04/20 12:09:17;;;;;;;2.85;2.65;;;;;;;;;;10254597;28;21725;-78
2023/04/20 12:14:18;;;;;;;2.85;2.65;;;;;;;;;;10248930;28;20213;-80
2023/04/20 12:19:19;;;;;;;2.53;2.35;;;;;;;;;;10241748;28;20221;-78
2023/04/20 12:24:20;;;;;;;2.95;2.75;;;;;;;;;;10264377;28;20229;-79
2023/04/20 12:29:21;;;;;;;2.88;2.58;;;;;;;;;;10250236;28;20272;-79
2023/04/20 12:34:22;;;;;;;2.92;2.30;;;;;;;;;;10251594;28;20221;-79
2023/04/20 12:39:23;;;;;;;2.90;2.70;;;;;;;;;;10268021;28;20301;-77
2023/04/20 12:44:24;;;;;;;3.28;3.13;;;;;;;;;;10252972;28;20556;-79
2023/04/20 12:49:25;;;;;;;3.35;3.15;;;;;;;;;;10263972;28;20232;-79
2023/04/20 12:54:26;;;;;;;2.90;2.75;;;;;;;;;;10253468;28;20250;-79
2023/04/20 12:59:27;;;;;;;3.15;3.00;;;;;;;;;;10263609;28;20669;-79
2023/04/20 13:04:28;;;;;;;3.55;3.30;;;;;;;;;;10256354;28;20368;-78
2023/04/20 13:09:29;;;;;;;3.78;3.58;;;;;;;;;;10257044;28;20217;-80
2023/04/20 13:14:31;;;;;;;3.42;3.05;;;;;;;;;;10264249;28;20732;-79
2023/04/20 13:19:32;;;;;;;3.40;3.20;;;;;;;;;;10246820;28;20252;-79
2023/04/20 13:24:33;;;;;;;5.03;4.40;;;;;;;;;;10261603;28;20224;-79
2023/04/20 13:29:34;;;;;;;6.20;5.45;;;;;;;;;;10244828;28;20229;-79
2023/04/20 13:34:35;;;;;;;5.80;5.28;;;;;;;;;;10234654;28;20221;-80
2023/04/20 13:39:37;;;;;;;7.13;5.55;;;;;;;;;;10222659;28;20265;-79
2023/04/20 13:44:38;;;;;;;9.45;6.03;;;;;;;;;;10239102;28;20954;-79
2023/04/20 13:49:39;;;;;;;7.50;6.18;;;;;;;;;;10258218;28;20221;-77
2023/04/20 13:54:40;;;;;;;6.18;4.93;;;;;;;;;;10236738;28;21690;-78
2023/04/20 13:59:41;;;;;;;5.18;4.45;;;;;;;;;;10243979;28;20213;-78
2023/04/20 14:04:42;;;;;;;5.32;3.85;;;;;;;;;;10252228;28;20285;-78
2023/04/20 14:09:43;;;;;;;4.15;3.85;;;;;;;;;;10253955;28;20787;-82
2023/04/20 14:14:44;;;;;;;4.18;3.83;;;;;;;;;;10241927;28;20217;-80
2023/04/20 14:19:46;;;;;;;4.88;3.92;;;;;;;;;;10252019;28;20225;-78
2023/04/20 14:24:48;;;;;;;5.85;4.75;;;;;;;;;;10268120;28;20240;-78
2023/04/20 14:29:50;;;;;;;5.05;4.30;;;;;;;;;;10271394;28;20279;-78
2023/04/20 14:34:51;;;;;;;5.10;4.45;;;;;;;;;;10240955;28;20395;-77
2023/04/20 14:39:52;;;;;;;5.53;4.75;;;;;;;;;;10241476;28;20217;-79
2023/04/20 14:44:53;;;;;;;5.93;4.97;;;;;;;;;;10257545;28;20365;-79
2023/04/20 14:49:54;;;;;;;6.70;5.53;;;;;;;;;;10249449;28;20249;-80
2023/04/20 14:54:55;;;;;;;6.15;5.55;;;;;;;;;;10250494;28;20244;-80
2023/04/20 14:59:57;;;;;;;6.60;5.93;;;;;;;;;;10246829;28;20224;-79
2023/04/20 15:04:58;;;;;;;6.15;5.55;;;;;;;;;;10263465;28;20359;-79
2023/04/20 15:09:59;;;;;;;6.45;5.85;;;;;;;;;;10267477;28;20225;-79
2023/04/20 15:15:00;;;;;;;8.75;6.97;;;;;;;;;;10266870;28;20228;-79
2023/04/20 15:20:00;;;;;;;13.13;7.45;;;;;;;;;;10256224;28;22228;-79
2023/04/20 15:25:02;;;;;;;13.25;7.88;;;;;;;;;;10263895;28;20229;-80
2023/04/20 15:30:03;;;;;;;12.80;8.43;;;;;;;;;;10235357;28;20865;-78
2023/04/20 15:35:05;;;;;;;14.50;8.93;;;;;;;;;;10257125;28;20822;-82
2023/04/20 15:40:06;;;;;;;14.25;9.48;;;;;;;;;;10240616;28;20218;-81
2023/04/20 15:45:08;;;;;;;13.57;9.10;;;;;;;;;;10270050;28;20288;-81
2023/04/20 15:50:09;;;;;;;15.07;9.10;;;;;;;;;;10247900;28;20205;-81
2023/04/20 15:55:10;;;;;;;12.30;9.18;;;;;;;;;;10232826;28;20218;-81
2023/04/20 16:00:12;;;;;;;11.73;9.20;;;;;;;;;;10266282;28;20227;-81
2023/04/20 16:05:13;;;;;;;10.60;8.60;;;;;;;;;;10249132;28;20210;-80
2023/04/20 16:10:14;;;;;;;13.15;8.88;;;;;;;;;;10250062;28;20224;-80
2023/04/20 16:15:15;;;;;;;10.13;8.50;;;;;;;;;;10263748;28;20277;-81
2023/04/20 16:20:16;;;;;;;13.20;8.55;;;;;;;;;;10268185;28;20232;-81
2023/04/20 16:25:21;;;;;;;9.00;8.10;;;;;;;;;;10246805;28;20209;-80
2023/04/20 16:30:22;;;;;;;12.65;9.48;;;;;;;;;;10269481;28;20937;-80
2023/04/20 16:35:23;;;;;;;12.45;8.55;;;;;;;;;;10271686;28;20232;-81
2023/04/20 16:40:25;;;;;;;11.80;8.50;;;;;;;;;;10262494;28;20244;-80
2023/04/20 16:45:26;;;;;;;12.52;8.88;;;;;;;;;;10261618;28;20312;-81
2023/04/20 16:50:27;;;;;;;9.75;7.72;;;;;;;;;;10239439;28;20754;-82
2023/04/20 16:55:29;;;;;;;11.13;8.13;;;;;;;;;;10243791;28;20232;-78
2023/04/20 17:00:30;;;;;;;14.07;7.93;;;;;;;;;;10261930;28;20233;-80
2023/04/20 17:05:31;;;;;;;11.85;7.90;;;;;;;;;;10247086;28;20284;-80
2023/04/20 17:10:34;;;;;;;10.15;7.97;;;;;;;;;;10245577;28;20697;-80
2023/04/20 17:15:35;;;;;;;8.95;7.85;;;;;;;;;;10240928;28;20953;-82
2023/04/20 17:20:36;;;;;;;9.40;7.65;;;;;;;;;;10235170;28;20767;-78
2023/04/20 17:25:38;;;;;;;8.90;7.68;;;;;;;;;;10258259;28;20221;-80
2023/04/20 17:30:40;;;;;;;7.80;7.10;;;;;;;;;;10254884;28;20876;-79
2023/04/20 17:35:41;;;;;;;12.30;7.82;;;;;;;;;;10249657;28;20228;-80
2023/04/20 17:40:42;;;;;;;10.25;7.78;;;;;;;;;;10234720;28;20233;-78
2023/04/20 17:45:44;;;;;;;11.38;7.22;;;;;;;;;;10228819;28;20221;-78
2023/04/20 17:50:48;;;;;;;10.32;7.65;;;;;;;;;;10239388;28;21290;-78
2023/04/20 17:55:50;;;;;;;9.02;7.95;;;;;;;;;;10257180;28;20229;-79
2023/04/20 18:00:51;;;;;;;9.82;7.05;;;;;;;;;;10250346;28;20237;-83
2023/04/20 18:05:52;;;;;;;10.77;8.05;;;;;;;;;;10298498;28;20225;-81
2023/04/20 18:10:54;;;;;;;13.30;8.68;;;;;;;;;;10260981;28;20256;-80
2023/04/20 18:15:55;;;;;;;14.45;8.65;;;;;;;;;;10256356;28;20292;-80
2023/04/20 18:20:56;;;;;;;11.40;8.55;;;;;;;;;;10238031;28;20296;-80
2023/04/20 18:25:57;;;;;;;10.18;7.72;;;;;;;;;;10251612;28;20667;-80
2023/04/20 18:31:01;;;;;;;8.43;7.47;;;;;;;;;;10255262;28;20294;-78
2023/04/20 18:36:02;;;;;;;11.73;7.85;;;;;;;;;;10251248;28;20872;-78
2023/04/20 18:41:03;;;;;;;8.50;7.07;;;;;;;;;;10231765;28;20220;-78
2023/04/20 18:46:04;;;;;;;13.50;7.22;;;;;;;;;;10245430;28;20277;-79
2023/04/20 18:51:05;;;;;;;8.60;7.15;;;;;;;;;;10221630;28;20223;-80
2023/04/20 18:56:06;;;;;;;9.32;7.15;;;;;;;;;;10232200;28;20671;-79
2023/04/20 19:01:07;;;;;;;10.30;7.25;;;;;;;;;;10236193;28;20315;-79
2023/04/20 19:06:09;;;;;;;7.13;6.45;;;;;;;;;;10236724;28;20232;-79
2023/04/20 19:11:10;;;;;;;10.48;7.20;;;;;;;;;;10231019;28;20945;-78
2023/04/20 19:16:11;;;;;;;11.15;7.47;;;;;;;;;;10238791;28;20944;-79
2023/04/20 19:21:12;;;;;;;11.15;7.70;;;;;;;;;;10249404;28;20275;-80
2023/04/20 19:26:13;;;;;;;12.32;8.38;;;;;;;;;;10236976;28;20707;-80
2023/04/20 19:31:14;;;;;;;8.55;7.72;;;;;;;;;;10250492;28;20312;-82
2023/04/20 19:36:17;;;;;;;9.02;6.43;;;;;;;;;;10267888;28;20323;-80
2023/04/20 19:41:18;;;;;;;10.57;8.20;;;;;;;;;;10256744;28;20293;-81
2023/04/20 19:46:20;;;;;;;11.77;8.82;;;;;;;;;;10262778;28;20221;-81
2023/04/20 19:51:24;;;;;;;10.52;8.55;;;;;;;;;;10274315;28;20750;-81
2023/04/20 19:56:25;;;;;;;13.25;8.18;;;;;;;;;;10245163;28;20394;-81
2023/04/20 20:01:26;;;;;;;12.55;8.40;;;;;;;;;;10261263;28;20349;-78
2023/04/20 20:06:27;;;;;;;10.93;7.05;;;;;;;;;;10269355;28;20210;-81
2023/04/20 20:11:28;;;;;;;11.48;8.25;;;;;;;;;;10266458;28;20296;-78
2023/04/20 20:16:29;;;;;;;13.35;8.80;;;;;;;;;;10251182;28;20317;-77
2023/04/20 20:21:30;;;;;;;10.57;7.85;;;;;;;;;;10264231;28;20225;-79
2023/04/20 20:26:32;;;;;;;14.05;9.00;;;;;;;;;;10268881;28;20272;-77
2023/04/20 20:31:32;;;;;;;12.88;9.13;;;;;;;;;;10254715;28;20217;-80
2023/04/20 20:36:34;;;;;;;12.65;9.02;;;;;;;;;;10270826;28;20225;-80
2023/04/20 20:41:35;;;;;;;14.43;8.68;;;;;;;;;;10261495;28;20240;-79
2023/04/20 20:46:36;;;;;;;13.48;9.40;;;;;;;;;;10239554;28;20876;-81
2023/04/20 20:51:37;;;;;;;16.52;9.82;;;;;;;;;;10245830;28;21052;-81
2023/04/20 20:56:38;;;;;;;14.98;9.23;;;;;;;;;;10253567;28;20272;-80
2023/04/20 21:01:39;;;;;;;13.82;9.55;;;;;;;;;;10274180;28;20259;-80
2023/04/20 21:06:40;;;;;;;11.65;8.27;;;;;;;;;;10253108;28;20240;-80
2023/04/20 21:11:41;;;;;;;12.85;8.68;;;;;;;;;;10275182;28;20225;-80
2023/04/20 21:16:42;;;;;;;11.90;8.75;;;;;;;;;;10256250;28;20218;-79
2023/04/20 21:21:43;;;;;;;11.10;7.93;;;;;;;;;;10252900;28;22036;-78
2023/04/20 21:26:45;;;;;;;15.90;9.98;;;;;;;;;;10255919;28;20243;-79
2023/04/20 21:31:46;;;;;;;13.38;8.68;;;;;;;;;;10253658;28;20260;-77
2023/04/20 21:36:47;;;;;;;13.73;9.02;;;;;;;;;;10237337;28;20249;-79
2023/04/20 21:41:48;;;;;;;12.70;9.25;;;;;;;;;;10252694;28;20224;-80
2023/04/20 21:46:49;;;;;;;9.75;8.50;;;;;;;;;;10264226;28;20641;-80
2023/04/20 21:51:50;;;;;;;10.75;8.95;;;;;;;;;;10275790;28;20225;-81
2023/04/20 21:56:51;;;;;;;17.52;8.70;;;;;;;;;;10271355;28;20676;-79
2023/04/20 22:01:52;;;;;;;12.45;7.80;;;;;;;;;;10283860;28;20781;-79
2023/04/20 22:06:54;;;;;;;10.05;7.63;;;;;;;;;;10269363;28;20243;-80
2023/04/20 22:11:56;;;;;;;11.65;8.23;;;;;;;;;;10257974;28;21075;-78
2023/04/20 22:16:58;;;;;;;10.23;7.60;;;;;;;;;;10273734;28;20600;-80
2023/04/20 22:21:59;;;;;;;10.10;8.15;;;;;;;;;;10284195;28;20579;-79
2023/04/20 22:27:01;;;;;;;11.68;7.60;;;;;;;;;;10258661;28;20373;-78
2023/04/20 22:32:02;;;;;;;9.55;7.47;;;;;;;;;;10266419;28;20737;-77
2023/04/20 22:37:03;;;;;;;13.05;8.63;;;;;;;;;;10269542;28;20218;-81
2023/04/20 22:42:04;;;;;;;11.75;7.45;;;;;;;;;;10250909;28;20281;-78
2023/04/20 22:47:05;;;;;;;8.43;7.25;;;;;;;;;;10251960;28;20629;-77
2023/04/20 22:52:06;;;;;;;8.43;7.00;;;;;;;;;;10247858;28;20217;-80
2023/04/20 22:57:07;;;;;;;7.10;6.13;;;;;;;;;;10225664;28;20770;-80
2023/04/20 23:02:08;;;;;;;8.25;7.30;;;;;;;;;;10253220;28;20224;-79
2023/04/20 23:07:10;;;;;;;9.25;6.78;;;;;;;;;;10259771;28;20316;-80
2023/04/20 23:12:11;;;;;;;16.33;7.03;;;;;;;;;;10257253;28;20295;-80
2023/04/20 23:17:12;;;;;;;7.82;6.78;;;;;;;;;;10272497;28;20231;-80
2023/04/20 23:22:14;;;;;;;6.43;5.82;;;;;;;;;;10273994;28;20315;-78
2023/04/20 23:27:15;;;;;;;6.70;6.03;;;;;;;;;;10275673;28;20217;-81
2023/04/20 23:32:16;;;;;;;8.50;6.63;;;;;;;;;;10259954;28;20225;-80
2023/04/20 23:37:17;;;;;;;8.43;5.93;;;;;;;;;;10265722;28;20222;-79
2023/04/20 23:42:18;;;;;;;6.85;5.97;;;;;;;;;;10257704;28;20547;-78
2023/04/20 23:47:19;;;;;;;6.50;5.95;;;;;;;;;;10270674;28;20210;-79
2023/04/20 23:52:20;;;;;;;6.78;5.32;;;;;;;;;;10254969;28;20222;-79
2023/04/20 23:57:21;;;;;;;7.43;5.50;;;;;;;;;;10238477;28;20250;-80
